Time;durP1;ratioP1;P1;durP2;ratioP2;P2;SDS_P1;SDS_P2;PMS_P1;PMS_P2;Temp;Humidity;BMP_temperature;BMP_pressure;BME280_temperature;BME280_humidity;BME280_pressure;Samples;Min_cycle;Max_cycle;Signal;HPM_P1;HPM_P2
2023/12/02 00:01:57;;;;;;;30.63;14.13;;;;;;;-1.72;100.00;100732.53;4924927;29;20031;-94
2023/12/02 00:04:23;;;;;;;35.35;15.35;;;;;;;-1.71;100.00;100742.34;4909214;29;20496;-94
2023/12/02 00:06:48;;;;;;;36.45;15.23;;;;;;;-1.73;100.00;100739.69;4901716;29;20042;-93
2023/12/02 00:09:13;;;;;;;33.08;14.88;;;;;;;-1.76;100.00;100744.28;4918144;29;20071;-95
2023/12/02 00:11:39;;;;;;;33.28;15.23;;;;;;;-1.79;100.00;100733.63;4902447;29;20031;-94
2023/12/02 00:14:04;;;;;;;36.25;16.27;;;;;;;-1.67;100.00;100722.53;4906832;29;20032;-94
2023/12/02 00:16:30;;;;;;;39.58;14.63;;;;;;;-1.61;100.00;100740.25;4905344;29;20042;-94
2023/12/02 00:18:55;;;;;;;33.30;14.35;;;;;;;-1.61;100.00;100743.81;4895994;29;20059;-92
2023/12/02 00:21:21;;;;;;;38.10;16.50;;;;;;;-1.64;100.00;100748.41;4931011;29;20434;-94
2023/12/02 00:23:47;;;;;;;34.55;16.88;;;;;;;-1.62;100.00;100746.53;4933512;29;20027;-94
2023/12/02 00:26:14;;;;;;;38.10;15.73;;;;;;;-1.72;100.00;100743.25;4932177;29;20035;-94
2023/12/02 00:28:41;;;;;;;30.85;13.93;;;;;;;-1.77;100.00;100738.06;4920519;29;20035;-94
2023/12/02 00:31:07;;;;;;;28.42;13.38;;;;;;;-1.73;100.00;100739.69;4937878;29;20054;-95
2023/12/02 00:33:32;;;;;;;35.90;15.95;;;;;;;-1.75;100.00;100746.06;4915972;29;20059;-93
2023/12/02 00:35:58;;;;;;;35.45;15.40;;;;;;;-1.72;100.00;100741.47;4932457;29;20031;-93
2023/12/02 00:38:23;;;;;;;30.77;13.82;;;;;;;-1.74;100.00;100743.34;4926118;29;20023;-93
2023/12/02 00:40:50;;;;;;;35.97;16.20;;;;;;;-1.68;100.00;100744.94;4907188;29;20036;-96
2023/12/02 00:43:15;;;;;;;29.23;14.10;;;;;;;-1.72;100.00;100745.94;4912972;29;20068;-91
2023/12/02 00:45:41;;;;;;;32.20;14.07;;;;;;;-1.82;100.00;100756.09;4923145;29;20122;-91
2023/12/02 00:48:06;;;;;;;31.27;13.90;;;;;;;-1.77;100.00;100740.72;4904582;29;20024;-91
2023/12/02 00:50:32;;;;;;;33.47;14.52;;;;;;;-1.71;100.00;100747.72;4894588;29;20421;-90
2023/12/02 00:52:57;;;;;;;26.65;12.25;;;;;;;-1.76;100.00;100761.25;4890609;29;20043;-91
2023/12/02 00:55:23;;;;;;;26.27;12.27;;;;;;;-1.92;100.00;100749.22;4906795;29;20035;-90
2023/12/02 00:57:49;;;;;;;26.67;12.27;;;;;;;-1.77;100.00;100742.50;4904769;29;20076;-90
2023/12/02 01:00:15;;;;;;;27.90;12.32;;;;;;;-1.85;100.00;100737.41;4924326;29;20441;-90
2023/12/02 01:02:41;;;;;;;27.58;12.52;;;;;;;-1.88;100.00;100751.78;4921751;29;20067;-91
2023/12/02 01:05:07;;;;;;;32.13;12.65;;;;;;;-1.83;100.00;100740.91;4910596;29;20034;-91
2023/12/02 01:07:33;;;;;;;28.52;12.68;;;;;;;-1.79;100.00;100742.56;4903008;29;20122;-91
2023/12/02 01:09:58;;;;;;;27.13;12.40;;;;;;;-1.88;100.00;100738.34;4902360;29;20110;-91
2023/12/02 01:12:23;;;;;;;24.55;9.73;;;;;;;-1.87;100.00;100741.91;4904095;29;20504;-91
2023/12/02 01:14:49;;;;;;;28.33;12.48;;;;;;;-1.92;100.00;100728.66;4912038;29;20075;-90
2023/12/02 01:17:14;;;;;;;26.20;11.90;;;;;;;-1.94;100.00;100733.16;4906280;29;20031;-90
2023/12/02 01:19:40;;;;;;;27.02;12.15;;;;;;;-1.87;100.00;100741.91;4912017;29;20058;-90
2023/12/02 01:22:06;;;;;;;26.23;12.20;;;;;;;-1.87;100.00;100733.84;4907304;29;20183;-90
2023/12/02 01:24:32;;;;;;;25.98;11.13;;;;;;;-1.80;100.00;100738.13;4918660;29;20027;-90
2023/12/02 01:26:57;;;;;;;28.73;13.38;;;;;;;-1.84;100.00;100736.47;4914704;29;20501;-91
2023/12/02 01:29:23;;;;;;;31.33;13.20;;;;;;;-1.82;100.00;100731.94;4905595;29;20184;-90
2023/12/02 01:31:48;;;;;;;25.30;12.18;;;;;;;-1.72;100.00;100732.53;4907553;29;20027;-90
2023/12/02 01:34:14;;;;;;;29.35;13.10;;;;;;;-1.79;100.00;100747.94;4924864;29;20028;-90
2023/12/02 01:36:39;;;;;;;26.48;12.48;;;;;;;-1.79;100.00;100755.09;4911357;29;20485;-91
2023/12/02 01:39:05;;;;;;;24.85;11.73;;;;;;;-1.78;100.00;100746.16;4923934;29;20039;-90
2023/12/02 01:41:31;;;;;;;28.50;12.48;;;;;;;-1.80;100.00;100748.88;4918254;29;20389;-90
2023/12/02 01:43:57;;;;;;;35.70;13.63;;;;;;;-1.80;100.00;100747.97;4942169;29;20458;-90
2023/12/02 01:46:23;;;;;;;30.60;13.07;;;;;;;-1.75;100.00;100746.06;4910727;29;20067;-90
2023/12/02 01:48:48;;;;;;;35.30;14.77;;;;;;;-1.74;100.00;100753.16;4907488;29;20042;-90
2023/12/02 01:51:16;;;;;;;30.55;13.68;;;;;;;-1.84;100.00;100763.28;4905331;29;20401;-90
2023/12/02 01:53:41;;;;;;;27.75;12.98;;;;;;;-1.87;100.00;100764.28;4926343;29;20035;-88
2023/12/02 01:56:08;;;;;;;25.85;12.15;;;;;;;-1.89;100.00;100768.78;4925249;29;20039;-91
2023/12/02 01:58:33;;;;;;;27.00;12.50;;;;;;;-1.98;100.00;100766.38;4910378;29;20035;-91
2023/12/02 02:00:58;;;;;;;29.13;12.45;;;;;;;-2.03;100.00;100768.31;4906910;29;20038;-90
2023/12/02 02:03:25;;;;;;;28.88;13.02;;;;;;;-2.04;100.00;100758.50;4906484;29;20424;-90
2023/12/02 02:05:51;;;;;;;32.90;12.75;;;;;;;-2.01;100.00;100768.28;4898368;29;20030;-90
2023/12/02 02:08:16;;;;;;;32.15;12.43;;;;;;;-1.94;100.00;100773.41;4910536;29;20023;-90
2023/12/02 02:10:41;;;;;;;29.08;12.63;;;;;;;-1.97;100.00;100769.94;4909138;29;20482;-91
2023/12/02 02:13:07;;;;;;;26.42;13.15;;;;;;;-1.99;100.00;100769.13;4918033;29;20094;-90
2023/12/02 02:15:32;;;;;;;30.75;13.10;;;;;;;-1.92;100.00;100774.28;4915151;29;20027;-90
2023/12/02 02:17:58;;;;;;;29.67;13.30;;;;;;;-1.95;100.00;100784.19;4910982;29;20039;-90
2023/12/02 02:20:23;;;;;;;31.80;13.63;;;;;;;-1.90;100.00;100793.88;4908924;29;20744;-90
2023/12/02 02:22:49;;;;;;;33.08;14.15;;;;;;;-1.99;100.00;100788.75;4906847;29;20035;-90
2023/12/02 02:25:14;;;;;;;37.15;14.60;;;;;;;-1.85;100.00;100786.56;4900162;29;20052;-90
2023/12/02 02:27:39;;;;;;;28.33;12.68;;;;;;;-1.90;100.00;100777.78;4909628;29;20433;-90
2023/12/02 02:30:07;;;;;;;28.38;12.60;;;;;;;-1.91;100.00;100784.06;4910149;29;20062;-90
2023/12/02 02:32:33;;;;;;;29.08;13.00;;;;;;;-1.87;100.00;100787.53;4930388;29;20142;-90
2023/12/02 02:34:58;;;;;;;24.83;11.85;;;;;;;-1.89;100.00;100776.84;4907821;29;20068;-90
2023/12/02 02:37:24;;;;;;;30.48;12.80;;;;;;;-1.93;100.00;100783.22;4906031;29;20036;-90
2023/12/02 02:39:50;;;;;;;22.05;10.68;;;;;;;-2.05;100.00;100781.78;4936345;29;20027;-90
2023/12/02 02:42:16;;;;;;;23.77;10.40;;;;;;;-2.04;100.00;100777.28;4919949;29;20113;-90
2023/12/02 02:44:41;;;;;;;24.83;11.50;;;;;;;-1.93;100.00;100782.34;4924986;29;20503;-90
2023/12/02 02:47:07;;;;;;;25.85;11.98;;;;;;;-2.06;100.00;100780.00;4920658;29;20083;-90
2023/12/02 02:49:32;;;;;;;24.23;12.05;;;;;;;-2.14;100.00;100781.16;4921615;29;20031;-90
2023/12/02 02:51:58;;;;;;;25.58;11.65;;;;;;;-2.06;100.00;100789.88;4914236;29;20102;-88
2023/12/02 02:54:23;;;;;;;22.13;10.38;;;;;;;-2.08;100.00;100789.91;4908817;29;20050;-88
2023/12/02 02:56:51;;;;;;;33.58;10.82;;;;;;;-2.07;100.00;100788.97;4913471;29;20473;-89
2023/12/02 02:59:16;;;;;;;26.02;11.50;;;;;;;-1.97;100.00;100794.09;4921829;29;20031;-88
2023/12/02 03:01:45;;;;;;;23.77;9.57;;;;;;;-2.14;100.00;100787.38;4916365;29;20045;-89
2023/12/02 03:04:10;;;;;;;23.10;11.07;;;;;;;-2.14;100.00;100786.53;4926174;29;20028;-88
2023/12/02 03:06:37;;;;;;;23.55;11.48;;;;;;;-2.14;100.00;100789.22;4896567;29;20054;-88
2023/12/02 03:09:05;;;;;;;31.38;11.90;;;;;;;-2.13;100.00;100799.00;4931415;29;20030;-88
2023/12/02 03:11:31;;;;;;;27.45;11.88;;;;;;;-2.04;100.00;100804.97;4909278;29;20035;-87
2023/12/02 03:13:56;;;;;;;28.10;11.43;;;;;;;-2.04;100.00;100815.72;4914440;29;20049;-88
2023/12/02 03:16:22;;;;;;;24.85;11.05;;;;;;;-2.07;100.00;100815.78;4920225;29;20039;-88
2023/12/02 03:18:48;;;;;;;23.30;11.48;;;;;;;-2.10;100.00;100810.53;4909488;29;20922;-88
2023/12/02 03:21:14;;;;;;;27.90;11.32;;;;;;;-2.10;100.00;100806.94;4931458;29;20027;-89
2023/12/02 03:23:41;;;;;;;28.80;12.77;;;;;;;-2.01;100.00;100805.84;4905776;29;20030;-89
2023/12/02 03:26:07;;;;;;;22.20;10.25;;;;;;;-2.07;100.00;100813.09;4940766;29;20046;-88
2023/12/02 03:28:33;;;;;;;26.95;11.18;;;;;;;-2.03;100.00;100806.75;4908464;29;20027;-89
2023/12/02 03:31:00;;;;;;;26.98;11.27;;;;;;;-2.01;100.00;100801.34;4899638;29;20056;-89
2023/12/02 03:33:26;;;;;;;28.95;11.05;;;;;;;-1.97;100.00;100802.13;4900698;29;20142;-89
2023/12/02 03:35:51;;;;;;;27.63;11.90;;;;;;;-2.06;100.00;100801.47;4891941;29;20130;-89
2023/12/02 03:38:17;;;;;;;26.05;11.93;;;;;;;-2.01;100.00;100803.16;4897407;29;20026;-89
2023/12/02 03:40:42;;;;;;;22.85;10.85;;;;;;;-2.01;100.00;100785.25;4905516;29;20506;-89
2023/12/02 03:43:09;;;;;;;24.20;11.25;;;;;;;-2.05;100.00;100800.56;4915241;29;20039;-89
2023/12/02 03:45:34;;;;;;;22.10;11.07;;;;;;;-2.15;100.00;100799.03;4909419;29;20023;-89
2023/12/02 03:47:59;;;;;;;27.83;10.90;;;;;;;-2.05;100.00;100803.25;4909898;29;20042;-90
2023/12/02 03:50:25;;;;;;;23.15;11.70;;;;;;;-2.05;100.00;100805.91;4918606;29;20154;-90
2023/12/02 03:52:51;;;;;;;27.13;12.02;;;;;;;-1.97;100.00;100810.19;4925538;29;20028;-90
2023/12/02 03:55:18;;;;;;;28.73;11.80;;;;;;;-2.08;100.00;100823.91;4907954;29;20074;-89
2023/12/02 03:57:44;;;;;;;25.25;12.43;;;;;;;-2.06;100.00;100822.06;4920969;29;20548;-90
2023/12/02 04:00:19;;;;;;;25.50;11.40;;;;;;;-2.03;100.00;100817.47;4905460;29;20039;-90
2023/12/02 04:02:45;;;;;;;23.02;10.40;;;;;;;-2.04;100.00;100821.06;4920754;29;20055;-89
2023/12/02 04:05:13;;;;;;;28.67;12.45;;;;;;;-2.04;100.00;100825.56;4924241;29;20027;-90
2023/12/02 04:07:39;;;;;;;28.95;11.65;;;;;;;-2.02;100.00;100829.09;4924448;29;20023;-90
2023/12/02 04:10:05;;;;;;;24.65;11.05;;;;;;;-2.06;100.00;100830.09;4924278;29;20039;-89
2023/12/02 04:12:36;;;;;;;26.35;12.10;;;;;;;-2.01;100.00;100832.66;4919987;29;20114;-89
2023/12/02 04:15:02;;;;;;;26.85;11.98;;;;;;;-2.05;100.00;100842.56;4916529;29;20035;-89
2023/12/02 04:17:27;;;;;;;28.17;12.23;;;;;;;-1.94;100.00;100842.28;4936225;29;20039;-89
2023/12/02 04:19:53;;;;;;;25.13;11.98;;;;;;;-1.95;100.00;100840.53;4903716;29;20070;-89
2023/12/02 04:22:19;;;;;;;21.70;11.45;;;;;;;-2.01;100.00;100841.59;4914254;29;20046;-89
2023/12/02 04:24:48;;;;;;;23.60;11.07;;;;;;;-1.95;100.00;100844.09;4922621;29;20031;-89
2023/12/02 04:27:13;;;;;;;20.23;10.57;;;;;;;-1.94;100.00;100853.03;4916160;29;20031;-88
2023/12/02 04:29:41;;;;;;;26.75;10.45;;;;;;;-2.00;100.00;100856.78;4909875;29;20027;-88
2023/12/02 04:32:10;;;;;;;24.98;10.68;;;;;;;-1.98;100.00;100851.34;4901288;29;20050;-88
2023/12/02 04:34:35;;;;;;;24.45;11.65;;;;;;;-1.93;100.00;100850.31;4909703;29;20051;-88
2023/12/02 04:37:01;;;;;;;23.98;11.32;;;;;;;-1.93;100.00;100849.44;4903478;29;20040;-88
2023/12/02 04:39:28;;;;;;;28.50;12.18;;;;;;;-1.98;100.00;100857.59;4938190;29;20486;-89
2023/12/02 04:41:53;;;;;;;26.55;12.07;;;;;;;-2.03;100.00;100854.16;4923320;29;20061;-88
2023/12/02 04:44:20;;;;;;;28.27;12.00;;;;;;;-1.97;100.00;100858.47;4939472;29;20459;-89
2023/12/02 04:46:45;;;;;;;28.27;12.02;;;;;;;-1.91;100.00;100866.34;4908877;29;20042;-89
2023/12/02 04:49:12;;;;;;;24.42;11.48;;;;;;;-1.89;100.00;100864.50;4923426;29;20095;-89
2023/12/02 04:51:38;;;;;;;26.65;11.27;;;;;;;-1.92;100.00;100864.59;4927333;29;20110;-90
2023/12/02 04:54:03;;;;;;;27.45;11.55;;;;;;;-1.89;100.00;100867.19;4906047;29;20060;-89
2023/12/02 04:56:29;;;;;;;22.70;10.68;;;;;;;-1.85;100.00;100859.00;4939558;29;20019;-89
2023/12/02 04:58:56;;;;;;;23.60;11.02;;;;;;;-1.92;100.00;100856.53;4924566;29;20489;-88
2023/12/02 05:01:21;;;;;;;22.63;10.35;;;;;;;-1.90;100.00;100865.44;4922161;29;20051;-89
2023/12/02 05:03:46;;;;;;;23.85;10.75;;;;;;;-1.95;100.00;100848.56;4910047;29;20039;-89
2023/12/02 05:06:17;;;;;;;25.48;11.55;;;;;;;-1.97;100.00;100866.53;4905311;29;20036;-89
2023/12/02 05:08:46;;;;;;;25.27;12.13;;;;;;;-2.05;100.00;100870.31;4928126;29;20035;-89
2023/12/02 05:11:22;;;;;;;28.40;10.75;;;;;;;-1.99;100.00;100874.59;4921140;29;20047;-89
2023/12/02 05:13:48;;;;;;;28.17;11.57;;;;;;;-1.99;100.00;100873.72;4938532;29;20031;-89
2023/12/02 05:16:14;;;;;;;26.90;11.20;;;;;;;-2.00;100.00;100871.97;4938645;29;20502;-89
2023/12/02 05:18:43;;;;;;;28.85;11.38;;;;;;;-2.03;100.00;100881.88;4917020;29;20548;-89
2023/12/02 05:21:12;;;;;;;24.40;11.45;;;;;;;-2.02;100.00;100877.38;4910708;29;20027;-88
2023/12/02 05:23:41;;;;;;;22.83;11.30;;;;;;;-1.95;100.00;100889.72;4950117;29;20146;-89
2023/12/02 05:26:08;;;;;;;25.73;11.90;;;;;;;-1.96;100.00;100885.25;4910877;29;20031;-89
2023/12/02 05:28:33;;;;;;;22.63;10.70;;;;;;;-1.97;100.00;100888.84;4918493;29;20054;-89
2023/12/02 05:30:59;;;;;;;24.85;11.68;;;;;;;-1.91;100.00;100886.00;4926600;29;20082;-89
2023/12/02 05:33:24;;;;;;;24.67;11.60;;;;;;;-1.95;100.00;100896.84;4910462;29;20083;-89
2023/12/02 05:35:50;;;;;;;25.00;11.45;;;;;;;-1.99;100.00;100893.38;4907493;29;20038;-89
2023/12/02 05:38:15;;;;;;;23.85;11.52;;;;;;;-1.89;100.00;100888.66;4917619;29;20062;-89
2023/12/02 05:40:40;;;;;;;25.42;12.48;;;;;;;-1.96;100.00;100885.25;4906835;29;20035;-89
2023/12/02 05:43:07;;;;;;;29.58;11.38;;;;;;;-1.97;100.00;100904.06;4923036;29;20114;-89
2023/12/02 05:45:32;;;;;;;22.60;10.93;;;;;;;-1.95;100.00;100899.53;4922686;29;20032;-90
2023/12/02 05:47:58;;;;;;;27.30;11.25;;;;;;;-1.92;100.00;100903.06;4906824;29;20118;-89
2023/12/02 05:50:23;;;;;;;21.55;10.38;;;;;;;-1.98;100.00;100889.78;4923138;29;20042;-89
2023/12/02 05:52:49;;;;;;;29.08;12.15;;;;;;;-1.91;100.00;100902.09;4897914;29;20122;-88
2023/12/02 05:55:14;;;;;;;23.98;11.20;;;;;;;-1.87;100.00;100901.13;4920324;29;20038;-89
2023/12/02 05:57:42;;;;;;;26.05;12.05;;;;;;;-1.93;100.00;100901.28;4917344;29;20071;-89
2023/12/02 06:00:08;;;;;;;24.25;10.50;;;;;;;-1.81;100.00;100904.56;4935661;29;20082;-89
2023/12/02 06:02:34;;;;;;;30.02;12.85;;;;;;;-1.87;100.00;100895.75;4898663;29;20027;-89
2023/12/02 06:04:59;;;;;;;28.27;12.15;;;;;;;-1.91;100.00;100899.41;4907698;29;20028;-90
2023/12/02 06:07:24;;;;;;;25.98;11.93;;;;;;;-1.88;100.00;100899.34;4905772;29;20082;-89
2023/12/02 06:09:50;;;;;;;24.95;11.07;;;;;;;-1.96;100.00;100901.34;4912566;29;20175;-90
2023/12/02 06:12:15;;;;;;;25.80;11.68;;;;;;;-1.90;100.00;100892.28;4915757;29;20178;-86
2023/12/02 06:14:41;;;;;;;24.98;12.55;;;;;;;-1.91;100.00;100901.25;4912255;29;20134;-89
2023/12/02 06:17:08;;;;;;;21.80;11.57;;;;;;;-1.92;100.00;100895.00;4903543;29;20114;-89
2023/12/02 06:19:34;;;;;;;26.10;12.30;;;;;;;-2.01;100.00;100902.41;4906209;29;20035;-89
2023/12/02 06:21:59;;;;;;;26.52;12.05;;;;;;;-2.00;100.00;100893.41;4908414;29;20047;-89
2023/12/02 06:24:25;;;;;;;26.63;12.02;;;;;;;-1.94;100.00;100902.19;4910349;29;20031;-90
2023/12/02 06:26:50;;;;;;;24.85;11.73;;;;;;;-2.03;100.00;100916.72;4909618;29;20594;-89
2023/12/02 06:29:15;;;;;;;27.17;12.60;;;;;;;-2.06;100.00;100932.91;4905484;29;20058;-89
2023/12/02 06:31:41;;;;;;;24.77;11.43;;;;;;;-2.03;100.00;100922.09;4909867;29;20050;-88
2023/12/02 06:34:07;;;;;;;28.08;12.32;;;;;;;-1.95;100.00;100921.00;4907446;29;20055;-90
2023/12/02 06:36:32;;;;;;;29.63;11.73;;;;;;;-2.06;100.00;100916.81;4923142;29;20138;-92
2023/12/02 06:38:58;;;;;;;25.40;11.32;;;;;;;-2.05;100.00;100913.22;4923465;29;20035;-90
2023/12/02 06:41:24;;;;;;;26.35;11.57;;;;;;;-2.02;100.00;100917.59;4936796;29;20114;-88
2023/12/02 06:43:49;;;;;;;28.25;11.88;;;;;;;-2.01;100.00;100927.44;4909078;29;20039;-87
2023/12/02 06:46:22;;;;;;;29.83;11.68;;;;;;;-2.04;100.00;100933.72;4907949;29;20063;-88
2023/12/02 06:48:48;;;;;;;25.70;11.95;;;;;;;-2.18;100.00;100940.38;4935357;29;20031;-88
2023/12/02 06:51:14;;;;;;;27.67;12.93;;;;;;;-2.29;100.00;100933.50;4938851;29;20028;-88
2023/12/02 06:53:39;;;;;;;27.50;11.82;;;;;;;-2.23;100.00;100941.38;4905973;29;20032;-88
2023/12/02 06:56:05;;;;;;;33.03;12.98;;;;;;;-2.18;100.00;100940.38;4906154;29;20042;-88
2023/12/02 06:58:30;;;;;;;28.23;12.05;;;;;;;-2.18;100.00;100949.31;4915506;29;20048;-88
2023/12/02 07:00:56;;;;;;;30.20;12.55;;;;;;;-2.27;100.00;100946.84;4909047;29;20047;-92
2023/12/02 07:03:21;;;;;;;26.35;12.68;;;;;;;-2.31;100.00;100958.56;4906347;29;20515;-90
2023/12/02 07:05:47;;;;;;;27.98;13.63;;;;;;;-2.26;100.00;100964.72;4917664;29;20122;-89
2023/12/02 07:08:12;;;;;;;28.90;13.50;;;;;;;-2.31;100.00;100964.84;4919036;29;20107;-87
2023/12/02 07:10:38;;;;;;;32.50;13.50;;;;;;;-2.38;100.00;100976.59;4904055;29;20035;-88
2023/12/02 07:13:03;;;;;;;27.52;11.43;;;;;;;-2.48;100.00;100973.25;4902894;29;20119;-89
2023/12/02 07:15:28;;;;;;;28.75;12.10;;;;;;;-2.43;100.00;100990.13;4917907;29;20047;-87
2023/12/02 07:17:54;;;;;;;26.63;11.77;;;;;;;-2.41;100.00;100982.03;4906629;29;20035;-87
2023/12/02 07:20:19;;;;;;;27.13;12.15;;;;;;;-2.46;100.00;100983.94;4936107;29;20028;-87
2023/12/02 07:22:45;;;;;;;29.20;12.60;;;;;;;-2.46;100.00;100995.56;4902575;29;20406;-87
2023/12/02 07:25:10;;;;;;;29.15;12.23;;;;;;;-2.40;100.00;100997.22;4903782;29;20028;-87
2023/12/02 07:27:36;;;;;;;29.15;12.63;;;;;;;-2.30;100.00;101001.44;4921452;29;20032;-90
2023/12/02 07:30:07;;;;;;;30.10;12.93;;;;;;;-2.31;100.00;100999.69;4904346;29;20035;-89
2023/12/02 07:32:32;;;;;;;32.40;12.23;;;;;;;-2.40;100.00;101006.13;4937167;29;20030;-87
2023/12/02 07:34:58;;;;;;;27.08;12.57;;;;;;;-2.32;100.00;101008.63;4922093;29;20075;-96
2023/12/02 07:45:09;;;;;;;28.90;13.07;;;;;;;-2.45;100.00;101010.72;5137558;23;20508;-92
2023/12/02 07:47:35;;;;;;;28.88;12.93;;;;;;;-2.49;100.00;101011.72;4947163;29;20366;-92
2023/12/02 07:50:01;;;;;;;31.75;13.70;;;;;;;-2.51;100.00;101010.88;4940731;29;20031;-91
2023/12/02 07:52:27;;;;;;;30.85;14.63;;;;;;;-2.47;100.00;101012.56;4927983;28;20109;-93
2023/12/02 07:54:52;;;;;;;33.70;13.63;;;;;;;-2.48;100.00;101016.13;4930310;29;20063;-92
2023/12/02 07:57:18;;;;;;;35.95;13.63;;;;;;;-2.50;100.00;101015.31;4925381;29;20047;-91
2023/12/02 07:59:43;;;;;;;31.65;14.43;;;;;;;-2.52;100.00;101019.81;4920475;29;20031;-93
2023/12/02 08:02:08;;;;;;;30.40;13.13;;;;;;;-2.47;100.00;101009.88;4924680;29;20568;-91
2023/12/02 08:04:34;;;;;;;29.33;13.18;;;;;;;-2.34;100.00;101039.09;4907108;29;20071;-91
2023/12/02 08:06:59;;;;;;;32.83;13.15;;;;;;;-2.44;100.00;101017.84;4896657;29;20031;-92
2023/12/02 08:09:26;;;;;;;36.42;14.63;;;;;;;-2.36;100.00;101036.47;4925918;29;20058;-93
2023/12/02 08:11:51;;;;;;;32.78;13.45;;;;;;;-2.39;100.00;101033.84;4928275;29;20086;-96
2023/12/02 08:14:17;;;;;;;26.73;12.80;;;;;;;-2.34;100.00;101031.06;4927034;29;20047;-95
2023/12/02 16:15:10;;;;;;;45.72;18.80;;;;;;;0.52;100.00;101366.75;763339;23;20430;-94
2023/12/02 16:17:38;;;;;;;58.55;20.98;;;;;;;0.54;100.00;101364.88;4923934;29;20047;-93
2023/12/02 16:20:11;;;;;;;57.00;21.40;;;;;;;0.55;100.00;101369.34;4906934;29;20044;-93
2023/12/02 16:22:39;;;;;;;;;;;;;;;0.58;100.00;101371.09;4897875;29;20063;-96
2023/12/02 16:25:08;;;;;;;51.33;19.85;;;;;;;0.50;100.00;101368.59;4935613;29;19918;-94
2023/12/02 16:27:34;;;;;;;55.60;21.45;;;;;;;0.57;100.00;101375.56;4931330;29;20286;-96
2023/12/02 16:30:03;;;;;;;53.63;20.95;;;;;;;0.52;100.00;101373.00;4927638;29;20066;-96
2023/12/02 16:32:33;;;;;;;52.60;20.77;;;;;;;0.47;100.00;101374.94;4924577;29;20398;-95
2023/12/02 16:35:01;;;;;;;56.67;22.83;;;;;;;0.53;100.00;101379.28;4939900;29;20043;-95
2023/12/02 16:37:27;;;;;;;51.80;21.70;;;;;;;0.51;100.00;101382.03;4939578;29;20055;-95
2023/12/02 16:39:54;;;;;;;51.92;21.88;;;;;;;0.51;100.00;101386.53;4940651;29;20043;-93
2023/12/02 16:42:20;;;;;;;41.60;18.00;;;;;;;0.46;100.00;101389.38;4922125;29;20035;-95
2023/12/02 16:44:45;;;;;;;49.92;20.45;;;;;;;0.46;100.00;101385.75;4939342;29;20023;-95
2023/12/02 16:47:38;;;;;;;52.42;21.80;;;;;;;0.50;100.00;101391.03;4909795;29;20023;-96
2023/12/02 16:50:16;;;;;;;58.03;21.88;;;;;;;0.46;100.00;101397.44;4937326;29;20071;-93
2023/12/02 16:52:50;;;;;;;47.85;19.55;;;;;;;0.46;100.00;101401.94;4920908;29;20055;-90
2023/12/02 16:55:16;;;;;;;54.05;20.73;;;;;;;0.45;100.00;101402.88;4944210;29;20039;-90
2023/12/02 16:57:47;;;;;;;48.70;19.52;;;;;;;0.42;100.00;101398.44;4920920;29;20055;-90
2023/12/02 17:00:18;;;;;;;48.35;20.20;;;;;;;0.43;100.00;101399.34;4947940;29;20024;-91
2023/12/02 17:02:52;;;;;;;51.50;20.63;;;;;;;0.43;100.00;101402.03;4911919;29;20012;-96
2023/12/02 17:05:32;;;;;;;51.47;21.55;;;;;;;0.39;100.00;101397.66;4928129;29;20054;-95
2023/12/02 17:08:14;;;;;;;54.63;22.65;;;;;;;0.37;100.00;101400.38;4923669;29;20138;-91
2023/12/02 17:10:43;;;;;;;55.35;21.90;;;;;;;0.35;100.00;101399.56;4933021;29;20036;-96
2023/12/02 17:13:37;;;;;;;56.50;21.98;;;;;;;0.35;100.00;101395.03;4943145;29;20039;-93
2023/12/02 19:34:50;;;;;;;60.38;22.20;;;;;;;-0.04;100.00;101477.75;1213969;26;20137;-84
2023/12/02 19:37:15;;;;;;;58.60;22.17;;;;;;;-0.12;100.00;101463.63;4955412;28;20493;-84
2023/12/02 19:39:41;;;;;;;59.08;21.33;;;;;;;-0.19;100.00;101461.06;4932806;29;20446;-84
2023/12/02 19:42:07;;;;;;;51.55;20.33;;;;;;;-0.20;100.00;101461.09;4947602;28;20047;-84
2023/12/02 19:44:33;;;;;;;51.53;19.98;;;;;;;-0.23;100.00;101458.47;4919467;29;20038;-83
2023/12/02 19:46:59;;;;;;;54.92;22.20;;;;;;;-0.14;100.00;101469.03;4934527;29;20075;-83
2023/12/02 19:49:26;;;;;;;61.08;22.38;;;;;;;-0.16;100.00;101472.66;4903677;28;20089;-83
2023/12/02 19:51:51;;;;;;;50.78;21.27;;;;;;;-0.19;100.00;101469.13;4934825;29;20114;-83
2023/12/02 19:54:17;;;;;;;56.10;22.00;;;;;;;-0.21;100.00;101476.38;4938935;28;20088;-84
2023/12/02 19:56:42;;;;;;;49.80;21.00;;;;;;;-0.18;100.00;101480.81;4938800;28;20038;-83
2023/12/02 19:59:08;;;;;;;55.65;22.20;;;;;;;-0.24;100.00;101479.13;4934498;29;20071;-84
2023/12/02 20:01:34;;;;;;;58.78;21.08;;;;;;;-0.18;100.00;101488.88;4941032;28;20435;-84
2023/12/02 20:03:59;;;;;;;51.10;19.20;;;;;;;-0.25;100.00;101489.94;4934990;29;20062;-85
2023/12/02 20:06:25;;;;;;;46.00;18.77;;;;;;;-0.26;100.00;101483.69;4932870;28;20031;-84
2023/12/02 20:08:50;;;;;;;49.63;20.52;;;;;;;-0.21;100.00;101491.66;4922877;28;20031;-85
2023/12/02 20:11:16;;;;;;;48.60;20.05;;;;;;;-0.27;100.00;101495.34;4917433;28;20028;-85
2023/12/02 20:13:41;;;;;;;54.20;19.00;;;;;;;-0.27;100.00;101495.34;4915880;28;20094;-85
2023/12/02 20:16:09;;;;;;;54.28;21.38;;;;;;;-0.25;100.00;101501.56;4934371;29;20023;-83
2023/12/02 20:18:35;;;;;;;53.72;20.55;;;;;;;-0.27;100.00;101494.47;4937057;28;20086;-84
2023/12/02 20:21:02;;;;;;;53.08;22.13;;;;;;;-0.25;100.00;101503.38;4930671;28;20073;-84
2023/12/02 20:23:27;;;;;;;59.00;22.02;;;;;;;-0.28;100.00;101501.66;4929124;28;20138;-85
2023/12/02 20:25:53;;;;;;;54.58;21.08;;;;;;;-0.24;100.00;101513.25;4918270;29;20110;-83
2023/12/02 20:28:18;;;;;;;55.80;21.63;;;;;;;-0.23;100.00;101506.91;4934227;28;20051;-83
2023/12/02 20:30:44;;;;;;;52.20;19.52;;;;;;;-0.21;100.00;101518.56;4940427;28;20038;-84
2023/12/02 20:33:09;;;;;;;50.90;20.60;;;;;;;-0.16;100.00;101513.94;4931130;29;20575;-84
2023/12/02 20:35:35;;;;;;;52.75;22.10;;;;;;;-0.17;100.00;101522.06;4948875;28;20062;-84
2023/12/02 20:38:00;;;;;;;63.85;22.70;;;;;;;-0.17;100.00;101522.06;4927300;29;20028;-84
2023/12/02 20:40:25;;;;;;;53.67;19.70;;;;;;;-0.17;100.00;101520.22;4925937;29;20036;-84
2023/12/02 20:42:51;;;;;;;49.65;19.55;;;;;;;-0.19;100.00;101525.66;4896737;29;20562;-84
2023/12/02 20:45:16;;;;;;;52.33;19.70;;;;;;;-0.21;100.00;101521.25;4908498;29;20068;-84
2023/12/02 20:47:42;;;;;;;56.78;21.80;;;;;;;-0.19;100.00;101527.47;4913242;29;20047;-84
2023/12/02 20:50:07;;;;;;;61.78;23.02;;;;;;;-0.20;100.00;101529.28;4907138;29;20047;-84
2023/12/02 20:52:33;;;;;;;57.88;21.77;;;;;;;-0.23;100.00;101532.03;4942816;28;20066;-84
2023/12/02 20:54:58;;;;;;;56.22;21.73;;;;;;;-0.18;100.00;101540.00;4926583;29;20044;-84
2023/12/02 20:57:24;;;;;;;51.17;20.38;;;;;;;-0.25;100.00;101533.84;4924868;29;20490;-84
2023/12/02 20:59:49;;;;;;;53.08;20.08;;;;;;;-0.15;100.00;101547.09;4909222;29;20486;-84
2023/12/02 21:02:14;;;;;;;55.55;22.27;;;;;;;-0.25;100.00;101536.53;4925809;29;20054;-84
2023/12/02 21:04:40;;;;;;;61.83;23.73;;;;;;;-0.26;100.00;101536.63;4913167;29;20028;-84
2023/12/02 21:07:05;;;;;;;62.47;22.02;;;;;;;-0.35;100.00;101540.38;4927836;29;20478;-84
2023/12/02 21:09:30;;;;;;;53.28;22.52;;;;;;;-0.30;100.00;101538.47;4926165;29;20047;-84
2023/12/02 21:11:56;;;;;;;57.22;22.55;;;;;;;-0.33;100.00;101533.16;4913300;29;20040;-82
2023/12/02 21:14:21;;;;;;;56.28;20.98;;;;;;;-0.39;100.00;101536.00;4920005;29;20893;-84
2023/12/02 21:16:48;;;;;;;51.97;20.90;;;;;;;-0.45;100.00;101528.06;4915514;29;20048;-84
2023/12/02 21:19:16;;;;;;;60.60;23.23;;;;;;;-0.47;100.00;101535.28;4899290;29;20138;-83
2023/12/02 21:21:42;;;;;;;60.78;22.33;;;;;;;-0.49;100.00;101539.78;4914883;29;20062;-84
2023/12/02 21:24:09;;;;;;;55.80;22.58;;;;;;;-0.58;100.00;101528.31;4920144;29;20491;-84